Terminal Aerodrome Forecast
Issued by NWS Albany, NY

Home | Current Version | Previous Version | Text Only | Print | Product List | Glossary On
Versions: 1 2 3 4 5 6 7 8 9 10 11 12 13 14 15 16 17
659
FTUS41 KALY 172347 CCA
TAFPOU
TAF COR
KPOU 172347Z 1800/1824 VRB03KT 4SM -RA BR OVC015
      TEMPO 1800/1804 2SM -RA BR OVC008
     FM180400 00000KT 3SM -DZ BR OVC008
     FM181000 VRB03KT 4SM BR OVC010
     FM181600 35004KT 4SM BR OVC015=

USA.gov is the U.S. government's official web portal to all federal, state and local government web resources and services.